sensor_id;sensor_type;location;lat;lon;timestamp;P1;durP1;ratioP1;P2;durP2;ratioP2
14681;SDS011;7429;52.498;13.480;2022-12-18T00:00:07;56.03;;;24.73;;
14681;SDS011;7429;52.498;13.480;2022-12-18T00:03:14;50.80;;;23.40;;
14681;SDS011;7429;52.498;13.480;2022-12-18T00:06:20;47.77;;;22.50;;
14681;SDS011;7429;52.498;13.480;2022-12-18T00:09:24;57.17;;;22.10;;
14681;SDS011;7429;52.498;13.480;2022-12-18T00:12:40;55.00;;;21.83;;
14681;SDS011;7429;52.498;13.480;2022-12-18T00:15:43;51.47;;;21.53;;
14681;SDS011;7429;52.498;13.480;2022-12-18T00:18:47;49.93;;;20.97;;
14681;SDS011;7429;52.498;13.480;2022-12-18T00:21:56;57.07;;;22.40;;
14681;SDS011;7429;52.498;13.480;2022-12-18T00:25:00;53.10;;;20.43;;
14681;SDS011;7429;52.498;13.480;2022-12-18T00:28:04;53.37;;;23.37;;
14681;SDS011;7429;52.498;13.480;2022-12-18T00:31:09;46.83;;;20.00;;
14681;SDS011;7429;52.498;13.480;2022-12-18T00:34:15;47.47;;;20.53;;
14681;SDS011;7429;52.498;13.480;2022-12-18T00:37:19;47.00;;;21.30;;
14681;SDS011;7429;52.498;13.480;2022-12-18T00:40:25;49.43;;;20.67;;
14681;SDS011;7429;52.498;13.480;2022-12-18T00:43:31;54.40;;;21.57;;
14681;SDS011;7429;52.498;13.480;2022-12-18T00:46:37;46.53;;;19.40;;
14681;SDS011;7429;52.498;13.480;2022-12-18T00:49:41;52.53;;;21.53;;
14681;SDS011;7429;52.498;13.480;2022-12-18T00:52:49;44.40;;;20.87;;
14681;SDS011;7429;52.498;13.480;2022-12-18T00:55:53;57.70;;;22.10;;
14681;SDS011;7429;52.498;13.480;2022-12-18T00:58:56;44.17;;;20.50;;
14681;SDS011;7429;52.498;13.480;2022-12-18T01:02:01;62.70;;;22.60;;
14681;SDS011;7429;52.498;13.480;2022-12-18T01:05:05;52.73;;;23.03;;
14681;SDS011;7429;52.498;13.480;2022-12-18T01:08:15;51.73;;;23.87;;
14681;SDS011;7429;52.498;13.480;2022-12-18T01:11:19;55.50;;;24.30;;
14681;SDS011;7429;52.498;13.480;2022-12-18T01:14:23;54.90;;;24.73;;
14681;SDS011;7429;52.498;13.480;2022-12-18T01:17:27;54.07;;;23.87;;
14681;SDS011;7429;52.498;13.480;2022-12-18T01:20:30;61.30;;;24.43;;
14681;SDS011;7429;52.498;13.480;2022-12-18T01:23:35;56.57;;;23.47;;
14681;SDS011;7429;52.498;13.480;2022-12-18T01:26:39;55.73;;;23.73;;
14681;SDS011;7429;52.498;13.480;2022-12-18T01:29:43;48.00;;;21.97;;
14681;SDS011;7429;52.498;13.480;2022-12-18T01:32:47;60.17;;;25.93;;
14681;SDS011;7429;52.498;13.480;2022-12-18T01:35:53;71.80;;;26.03;;
14681;SDS011;7429;52.498;13.480;2022-12-18T01:38:59;75.80;;;26.77;;
14681;SDS011;7429;52.498;13.480;2022-12-18T01:42:09;73.90;;;27.60;;
14681;SDS011;7429;52.498;13.480;2022-12-18T01:45:25;72.83;;;29.33;;
14681;SDS011;7429;52.498;13.480;2022-12-18T01:48:30;80.80;;;31.50;;
14681;SDS011;7429;52.498;13.480;2022-12-18T01:51:34;78.03;;;31.23;;
14681;SDS011;7429;52.498;13.480;2022-12-18T01:54:40;82.33;;;31.17;;
14681;SDS011;7429;52.498;13.480;2022-12-18T01:57:43;80.50;;;29.47;;
14681;SDS011;7429;52.498;13.480;2022-12-18T02:00:47;77.87;;;31.13;;
14681;SDS011;7429;52.498;13.480;2022-12-18T02:03:53;78.07;;;28.17;;
14681;SDS011;7429;52.498;13.480;2022-12-18T02:06:58;88.40;;;33.00;;
14681;SDS011;7429;52.498;13.480;2022-12-18T02:10:13;81.53;;;32.27;;
14681;SDS011;7429;52.498;13.480;2022-12-18T02:13:25;91.30;;;31.50;;
14681;SDS011;7429;52.498;13.480;2022-12-18T02:16:38;84.73;;;30.43;;
14681;SDS011;7429;52.498;13.480;2022-12-18T02:19:53;80.87;;;30.50;;
14681;SDS011;7429;52.498;13.480;2022-12-18T02:23:09;82.63;;;30.47;;
14681;SDS011;7429;52.498;13.480;2022-12-18T02:26:28;78.57;;;30.03;;
14681;SDS011;7429;52.498;13.480;2022-12-18T02:29:40;86.23;;;29.93;;
14681;SDS011;7429;52.498;13.480;2022-12-18T02:32:47;85.70;;;31.57;;
14681;SDS011;7429;52.498;13.480;2022-12-18T02:35:54;72.37;;;29.40;;
14681;SDS011;7429;52.498;13.480;2022-12-18T02:39:00;80.30;;;29.90;;
14681;SDS011;7429;52.498;13.480;2022-12-18T02:42:06;73.77;;;28.00;;
14681;SDS011;7429;52.498;13.480;2022-12-18T02:45:10;81.27;;;29.13;;
14681;SDS011;7429;52.498;13.480;2022-12-18T02:48:14;72.07;;;28.20;;
14681;SDS011;7429;52.498;13.480;2022-12-18T02:51:21;66.33;;;25.90;;
14681;SDS011;7429;52.498;13.480;2022-12-18T02:54:36;71.17;;;29.43;;
14681;SDS011;7429;52.498;13.480;2022-12-18T02:57:57;81.23;;;27.23;;
14681;SDS011;7429;52.498;13.480;2022-12-18T03:01:11;72.97;;;27.97;;
14681;SDS011;7429;52.498;13.480;2022-12-18T03:04:20;81.67;;;28.23;;
14681;SDS011;7429;52.498;13.480;2022-12-18T03:07:34;66.17;;;26.33;;
14681;SDS011;7429;52.498;13.480;2022-12-18T03:10:45;68.23;;;26.37;;
14681;SDS011;7429;52.498;13.480;2022-12-18T03:13:56;73.40;;;26.60;;
14681;SDS011;7429;52.498;13.480;2022-12-18T03:17:02;66.40;;;26.53;;
14681;SDS011;7429;52.498;13.480;2022-12-18T03:20:07;63.77;;;25.03;;
14681;SDS011;7429;52.498;13.480;2022-12-18T03:23:15;67.83;;;25.10;;
14681;SDS011;7429;52.498;13.480;2022-12-18T03:26:26;64.13;;;24.50;;
14681;SDS011;7429;52.498;13.480;2022-12-18T03:29:37;61.70;;;24.97;;
14681;SDS011;7429;52.498;13.480;2022-12-18T03:32:48;62.17;;;24.50;;
14681;SDS011;7429;52.498;13.480;2022-12-18T03:36:00;55.03;;;22.80;;
14681;SDS011;7429;52.498;13.480;2022-12-18T03:39:04;66.53;;;26.13;;
14681;SDS011;7429;52.498;13.480;2022-12-18T03:42:12;66.17;;;24.83;;
14681;SDS011;7429;52.498;13.480;2022-12-18T03:45:30;60.87;;;25.63;;
14681;SDS011;7429;52.498;13.480;2022-12-18T03:48:41;63.00;;;24.53;;
14681;SDS011;7429;52.498;13.480;2022-12-18T03:51:58;60.13;;;23.23;;
14681;SDS011;7429;52.498;13.480;2022-12-18T03:55:06;57.37;;;23.93;;
14681;SDS011;7429;52.498;13.480;2022-12-18T03:58:13;60.20;;;24.27;;
14681;SDS011;7429;52.498;13.480;2022-12-18T04:01:31;50.97;;;22.93;;
14681;SDS011;7429;52.498;13.480;2022-12-18T04:04:38;52.00;;;23.73;;
14681;SDS011;7429;52.498;13.480;2022-12-18T04:07:45;63.10;;;24.50;;
14681;SDS011;7429;52.498;13.480;2022-12-18T04:10:51;58.97;;;24.17;;
14681;SDS011;7429;52.498;13.480;2022-12-18T04:13:56;59.33;;;25.13;;
14681;SDS011;7429;52.498;13.480;2022-12-18T04:17:01;63.90;;;23.63;;
14681;SDS011;7429;52.498;13.480;2022-12-18T04:20:08;55.00;;;22.27;;
14681;SDS011;7429;52.498;13.480;2022-12-18T04:23:16;57.17;;;23.33;;
14681;SDS011;7429;52.498;13.480;2022-12-18T04:26:21;54.57;;;21.87;;
14681;SDS011;7429;52.498;13.480;2022-12-18T04:29:37;56.77;;;21.43;;
14681;SDS011;7429;52.498;13.480;2022-12-18T04:32:43;57.17;;;22.30;;
14681;SDS011;7429;52.498;13.480;2022-12-18T04:35:53;54.20;;;21.27;;
14681;SDS011;7429;52.498;13.480;2022-12-18T04:38:57;49.93;;;20.67;;
14681;SDS011;7429;52.498;13.480;2022-12-18T04:42:01;51.37;;;22.57;;
14681;SDS011;7429;52.498;13.480;2022-12-18T04:45:06;53.13;;;24.10;;
14681;SDS011;7429;52.498;13.480;2022-12-18T04:48:12;61.20;;;23.47;;
14681;SDS011;7429;52.498;13.480;2022-12-18T04:51:16;51.37;;;22.27;;
14681;SDS011;7429;52.498;13.480;2022-12-18T04:54:27;58.03;;;24.60;;
14681;SDS011;7429;52.498;13.480;2022-12-18T04:57:33;53.77;;;23.20;;
14681;SDS011;7429;52.498;13.480;2022-12-18T05:00:37;55.93;;;23.10;;
14681;SDS011;7429;52.498;13.480;2022-12-18T05:03:41;55.47;;;21.23;;
14681;SDS011;7429;52.498;13.480;2022-12-18T05:06:45;63.30;;;23.50;;
14681;SDS011;7429;52.498;13.480;2022-12-18T05:09:49;55.60;;;23.10;;
14681;SDS011;7429;52.498;13.480;2022-12-18T05:12:52;58.90;;;23.47;;
14681;SDS011;7429;52.498;13.480;2022-12-18T05:16:02;63.87;;;24.57;;
14681;SDS011;7429;52.498;13.480;2022-12-18T05:19:07;62.57;;;23.13;;
14681;SDS011;7429;52.498;13.480;2022-12-18T05:22:10;70.00;;;23.70;;
14681;SDS011;7429;52.498;13.480;2022-12-18T05:25:14;71.73;;;25.07;;
14681;SDS011;7429;52.498;13.480;2022-12-18T05:28:17;69.57;;;27.03;;
14681;SDS011;7429;52.498;13.480;2022-12-18T05:31:20;60.43;;;23.97;;
14681;SDS011;7429;52.498;13.480;2022-12-18T05:34:25;66.63;;;26.43;;
14681;SDS011;7429;52.498;13.480;2022-12-18T05:37:28;70.77;;;27.20;;
14681;SDS011;7429;52.498;13.480;2022-12-18T05:40:31;82.30;;;27.33;;
14681;SDS011;7429;52.498;13.480;2022-12-18T05:43:36;80.00;;;27.03;;
14681;SDS011;7429;52.498;13.480;2022-12-18T05:46:44;85.30;;;29.43;;
14681;SDS011;7429;52.498;13.480;2022-12-18T05:49:48;74.70;;;26.30;;
14681;SDS011;7429;52.498;13.480;2022-12-18T05:52:53;72.50;;;26.77;;
14681;SDS011;7429;52.498;13.480;2022-12-18T05:55:59;70.67;;;26.87;;
14681;SDS011;7429;52.498;13.480;2022-12-18T05:59:03;82.30;;;27.57;;
14681;SDS011;7429;52.498;13.480;2022-12-18T06:02:07;77.73;;;26.83;;
14681;SDS011;7429;52.498;13.480;2022-12-18T06:05:11;71.37;;;26.33;;
14681;SDS011;7429;52.498;13.480;2022-12-18T06:08:14;78.00;;;29.40;;
14681;SDS011;7429;52.498;13.480;2022-12-18T06:11:18;71.03;;;26.77;;
14681;SDS011;7429;52.498;13.480;2022-12-18T06:14:25;71.50;;;28.00;;
14681;SDS011;7429;52.498;13.480;2022-12-18T06:17:28;73.50;;;26.97;;
14681;SDS011;7429;52.498;13.480;2022-12-18T06:20:32;68.03;;;25.30;;
14681;SDS011;7429;52.498;13.480;2022-12-18T06:23:38;73.83;;;26.90;;
14681;SDS011;7429;52.498;13.480;2022-12-18T06:26:41;69.60;;;26.83;;
14681;SDS011;7429;52.498;13.480;2022-12-18T06:29:44;71.27;;;26.80;;
14681;SDS011;7429;52.498;13.480;2022-12-18T06:32:49;64.97;;;25.73;;
14681;SDS011;7429;52.498;13.480;2022-12-18T06:36:00;74.00;;;26.73;;
14681;SDS011;7429;52.498;13.480;2022-12-18T06:39:05;76.17;;;27.53;;
14681;SDS011;7429;52.498;13.480;2022-12-18T06:42:09;59.97;;;25.23;;
14681;SDS011;7429;52.498;13.480;2022-12-18T06:45:12;78.23;;;26.07;;
14681;SDS011;7429;52.498;13.480;2022-12-18T06:48:18;71.83;;;26.17;;
14681;SDS011;7429;52.498;13.480;2022-12-18T06:51:23;72.87;;;25.73;;
14681;SDS011;7429;52.498;13.480;2022-12-18T06:54:27;72.37;;;28.20;;
14681;SDS011;7429;52.498;13.480;2022-12-18T06:57:30;66.90;;;26.10;;
14681;SDS011;7429;52.498;13.480;2022-12-18T07:00:33;80.47;;;27.97;;
14681;SDS011;7429;52.498;13.480;2022-12-18T07:03:36;66.27;;;25.60;;
14681;SDS011;7429;52.498;13.480;2022-12-18T07:06:42;73.67;;;27.03;;
14681;SDS011;7429;52.498;13.480;2022-12-18T07:09:45;71.20;;;26.47;;
14681;SDS011;7429;52.498;13.480;2022-12-18T07:12:48;66.63;;;27.60;;
14681;SDS011;7429;52.498;13.480;2022-12-18T07:15:51;74.73;;;27.20;;
14681;SDS011;7429;52.498;13.480;2022-12-18T07:18:54;76.37;;;27.73;;
14681;SDS011;7429;52.498;13.480;2022-12-18T07:21:59;68.70;;;26.43;;
14681;SDS011;7429;52.498;13.480;2022-12-18T07:25:03;72.13;;;25.83;;
14681;SDS011;7429;52.498;13.480;2022-12-18T07:28:07;69.43;;;26.43;;
14681;SDS011;7429;52.498;13.480;2022-12-18T07:31:18;68.10;;;26.23;;
14681;SDS011;7429;52.498;13.480;2022-12-18T07:34:23;60.83;;;24.67;;
14681;SDS011;7429;52.498;13.480;2022-12-18T07:37:28;68.60;;;24.93;;
14681;SDS011;7429;52.498;13.480;2022-12-18T07:40:31;67.47;;;26.07;;
14681;SDS011;7429;52.498;13.480;2022-12-18T07:43:34;77.43;;;29.10;;
14681;SDS011;7429;52.498;13.480;2022-12-18T07:46:38;64.60;;;26.23;;
14681;SDS011;7429;52.498;13.480;2022-12-18T07:49:41;66.83;;;26.80;;
14681;SDS011;7429;52.498;13.480;2022-12-18T07:52:46;65.57;;;25.70;;
14681;SDS011;7429;52.498;13.480;2022-12-18T07:55:49;66.63;;;26.00;;
14681;SDS011;7429;52.498;13.480;2022-12-18T07:59:17;55.97;;;24.27;;
14681;SDS011;7429;52.498;13.480;2022-12-18T08:02:21;58.53;;;24.17;;
14681;SDS011;7429;52.498;13.480;2022-12-18T08:05:24;60.27;;;24.60;;
14681;SDS011;7429;52.498;13.480;2022-12-18T08:08:28;66.23;;;25.23;;
14681;SDS011;7429;52.498;13.480;2022-12-18T08:11:31;65.80;;;24.67;;
14681;SDS011;7429;52.498;13.480;2022-12-18T08:14:34;58.60;;;23.43;;
14681;SDS011;7429;52.498;13.480;2022-12-18T08:17:37;56.93;;;23.63;;
14681;SDS011;7429;52.498;13.480;2022-12-18T08:20:40;47.37;;;22.13;;
14681;SDS011;7429;52.498;13.480;2022-12-18T08:23:48;56.10;;;24.70;;
14681;SDS011;7429;52.498;13.480;2022-12-18T08:26:53;53.70;;;23.83;;
14681;SDS011;7429;52.498;13.480;2022-12-18T08:30:18;52.10;;;24.13;;
14681;SDS011;7429;52.498;13.480;2022-12-18T08:33:24;52.90;;;20.83;;
14681;SDS011;7429;52.498;13.480;2022-12-18T08:36:29;59.17;;;24.90;;
14681;SDS011;7429;52.498;13.480;2022-12-18T08:39:33;56.20;;;23.93;;
14681;SDS011;7429;52.498;13.480;2022-12-18T08:42:36;55.60;;;24.23;;
14681;SDS011;7429;52.498;13.480;2022-12-18T08:45:57;60.30;;;25.00;;
14681;SDS011;7429;52.498;13.480;2022-12-18T08:49:00;56.60;;;24.77;;
14681;SDS011;7429;52.498;13.480;2022-12-18T08:52:04;52.70;;;24.07;;
14681;SDS011;7429;52.498;13.480;2022-12-18T08:55:09;50.63;;;23.97;;
14681;SDS011;7429;52.498;13.480;2022-12-18T08:58:12;51.67;;;20.70;;
14681;SDS011;7429;52.498;13.480;2022-12-18T09:01:15;64.73;;;24.20;;
14681;SDS011;7429;52.498;13.480;2022-12-18T09:04:26;57.07;;;23.83;;
14681;SDS011;7429;52.498;13.480;2022-12-18T09:07:30;55.60;;;25.60;;
14681;SDS011;7429;52.498;13.480;2022-12-18T09:10:40;57.53;;;24.27;;
14681;SDS011;7429;52.498;13.480;2022-12-18T09:13:44;58.47;;;25.27;;
14681;SDS011;7429;52.498;13.480;2022-12-18T09:16:47;51.70;;;23.80;;
14681;SDS011;7429;52.498;13.480;2022-12-18T09:19:50;61.50;;;24.33;;
14681;SDS011;7429;52.498;13.480;2022-12-18T09:22:53;62.60;;;24.03;;
14681;SDS011;7429;52.498;13.480;2022-12-18T09:25:59;66.57;;;23.70;;
14681;SDS011;7429;52.498;13.480;2022-12-18T09:29:04;62.13;;;24.33;;
14681;SDS011;7429;52.498;13.480;2022-12-18T09:32:08;62.70;;;23.80;;
14681;SDS011;7429;52.498;13.480;2022-12-18T09:35:12;61.63;;;24.70;;
14681;SDS011;7429;52.498;13.480;2022-12-18T09:38:16;62.70;;;25.77;;
14681;SDS011;7429;52.498;13.480;2022-12-18T09:41:34;60.40;;;25.13;;
14681;SDS011;7429;52.498;13.480;2022-12-18T09:44:44;66.67;;;25.37;;
14681;SDS011;7429;52.498;13.480;2022-12-18T09:47:52;65.40;;;26.13;;
14681;SDS011;7429;52.498;13.480;2022-12-18T09:50:58;57.47;;;24.10;;
14681;SDS011;7429;52.498;13.480;2022-12-18T09:54:10;65.03;;;25.47;;
14681;SDS011;7429;52.498;13.480;2022-12-18T09:57:19;61.30;;;25.13;;
14681;SDS011;7429;52.498;13.480;2022-12-18T10:00:25;65.80;;;24.87;;
14681;SDS011;7429;52.498;13.480;2022-12-18T10:03:28;67.50;;;27.37;;
14681;SDS011;7429;52.498;13.480;2022-12-18T10:06:32;68.87;;;26.17;;
14681;SDS011;7429;52.498;13.480;2022-12-18T10:09:43;52.40;;;26.87;;
14681;SDS011;7429;52.498;13.480;2022-12-18T10:12:56;59.53;;;24.47;;
14681;SDS011;7429;52.498;13.480;2022-12-18T10:16:16;62.00;;;26.70;;
14681;SDS011;7429;52.498;13.480;2022-12-18T10:19:32;71.43;;;26.90;;
14681;SDS011;7429;52.498;13.480;2022-12-18T10:22:48;67.73;;;24.87;;
14681;SDS011;7429;52.498;13.480;2022-12-18T10:26:00;62.93;;;25.50;;
14681;SDS011;7429;52.498;13.480;2022-12-18T10:29:08;66.40;;;28.47;;
14681;SDS011;7429;52.498;13.480;2022-12-18T10:32:15;65.07;;;26.67;;
14681;SDS011;7429;52.498;13.480;2022-12-18T10:35:22;75.50;;;27.07;;
14681;SDS011;7429;52.498;13.480;2022-12-18T10:38:28;80.87;;;27.60;;
14681;SDS011;7429;52.498;13.480;2022-12-18T10:41:33;72.00;;;28.30;;
14681;SDS011;7429;52.498;13.480;2022-12-18T10:44:38;59.93;;;27.27;;
14681;SDS011;7429;52.498;13.480;2022-12-18T10:47:42;66.23;;;25.93;;
14681;SDS011;7429;52.498;13.480;2022-12-18T10:50:47;75.10;;;27.70;;
14681;SDS011;7429;52.498;13.480;2022-12-18T10:54:14;67.57;;;28.27;;
14681;SDS011;7429;52.498;13.480;2022-12-18T10:57:29;71.47;;;26.90;;
14681;SDS011;7429;52.498;13.480;2022-12-18T11:00:38;61.13;;;25.53;;
14681;SDS011;7429;52.498;13.480;2022-12-18T11:03:42;66.63;;;24.27;;
14681;SDS011;7429;52.498;13.480;2022-12-18T11:06:54;63.47;;;24.77;;
14681;SDS011;7429;52.498;13.480;2022-12-18T11:10:01;61.20;;;25.13;;
14681;SDS011;7429;52.498;13.480;2022-12-18T11:13:11;61.20;;;25.07;;
14681;SDS011;7429;52.498;13.480;2022-12-18T11:16:21;56.40;;;24.47;;
14681;SDS011;7429;52.498;13.480;2022-12-18T11:19:32;54.23;;;25.13;;
14681;SDS011;7429;52.498;13.480;2022-12-18T11:22:37;68.33;;;26.70;;
14681;SDS011;7429;52.498;13.480;2022-12-18T11:25:40;57.57;;;23.07;;
14681;SDS011;7429;52.498;13.480;2022-12-18T11:29:07;63.43;;;26.13;;
14681;SDS011;7429;52.498;13.480;2022-12-18T11:32:20;50.83;;;22.50;;
14681;SDS011;7429;52.498;13.480;2022-12-18T11:35:35;53.73;;;23.03;;
14681;SDS011;7429;52.498;13.480;2022-12-18T11:38:45;47.60;;;22.40;;
14681;SDS011;7429;52.498;13.480;2022-12-18T11:41:50;51.27;;;23.73;;
14681;SDS011;7429;52.498;13.480;2022-12-18T11:45:26;61.43;;;24.73;;
14681;SDS011;7429;52.498;13.480;2022-12-18T11:48:34;49.77;;;24.03;;
14681;SDS011;7429;52.498;13.480;2022-12-18T11:51:49;47.57;;;23.17;;
14681;SDS011;7429;52.498;13.480;2022-12-18T11:54:58;54.57;;;22.63;;
14681;SDS011;7429;52.498;13.480;2022-12-18T11:58:07;46.50;;;22.80;;
14681;SDS011;7429;52.498;13.480;2022-12-18T12:01:25;51.33;;;24.17;;
14681;SDS011;7429;52.498;13.480;2022-12-18T12:04:53;45.87;;;21.53;;
14681;SDS011;7429;52.498;13.480;2022-12-18T12:08:13;48.80;;;20.60;;
14681;SDS011;7429;52.498;13.480;2022-12-18T12:11:27;46.47;;;20.87;;
14681;SDS011;7429;52.498;13.480;2022-12-18T12:14:43;45.60;;;21.40;;
14681;SDS011;7429;52.498;13.480;2022-12-18T12:17:54;51.20;;;24.07;;
14681;SDS011;7429;52.498;13.480;2022-12-18T12:21:17;52.40;;;23.30;;
14681;SDS011;7429;52.498;13.480;2022-12-18T12:24:30;51.93;;;23.17;;
14681;SDS011;7429;52.498;13.480;2022-12-18T12:27:49;48.57;;;21.03;;
14681;SDS011;7429;52.498;13.480;2022-12-18T12:31:06;47.00;;;19.63;;
14681;SDS011;7429;52.498;13.480;2022-12-18T12:34:19;46.83;;;21.13;;
14681;SDS011;7429;52.498;13.480;2022-12-18T12:37:32;52.83;;;23.03;;
14681;SDS011;7429;52.498;13.480;2022-12-18T12:40:46;50.80;;;22.10;;
14681;SDS011;7429;52.498;13.480;2022-12-18T12:44:04;39.97;;;21.37;;
14681;SDS011;7429;52.498;13.480;2022-12-18T12:47:14;52.83;;;22.77;;
14681;SDS011;7429;52.498;13.480;2022-12-18T12:50:21;51.83;;;22.77;;
14681;SDS011;7429;52.498;13.480;2022-12-18T12:53:28;40.80;;;19.60;;
14681;SDS011;7429;52.498;13.480;2022-12-18T12:56:39;41.10;;;20.43;;
14681;SDS011;7429;52.498;13.480;2022-12-18T12:59:52;44.33;;;22.17;;
14681;SDS011;7429;52.498;13.480;2022-12-18T13:03:07;44.57;;;22.60;;
14681;SDS011;7429;52.498;13.480;2022-12-18T13:06:33;44.70;;;21.80;;
14681;SDS011;7429;52.498;13.480;2022-12-18T13:13:27;42.17;;;20.97;;
14681;SDS011;7429;52.498;13.480;2022-12-18T13:20:32;44.23;;;22.00;;
14681;SDS011;7429;52.498;13.480;2022-12-18T13:23:38;42.77;;;20.97;;
14681;SDS011;7429;52.498;13.480;2022-12-18T13:26:44;45.43;;;22.07;;
14681;SDS011;7429;52.498;13.480;2022-12-18T13:29:47;46.57;;;22.87;;
14681;SDS011;7429;52.498;13.480;2022-12-18T13:32:50;49.90;;;23.67;;
14681;SDS011;7429;52.498;13.480;2022-12-18T13:40:53;47.83;;;23.53;;
14681;SDS011;7429;52.498;13.480;2022-12-18T13:44:11;56.60;;;24.93;;
14681;SDS011;7429;52.498;13.480;2022-12-18T13:47:31;52.13;;;24.40;;
14681;SDS011;7429;52.498;13.480;2022-12-18T13:50:36;56.50;;;26.23;;
14681;SDS011;7429;52.498;13.480;2022-12-18T13:53:42;55.37;;;26.77;;
14681;SDS011;7429;52.498;13.480;2022-12-18T13:56:51;61.83;;;29.00;;
14681;SDS011;7429;52.498;13.480;2022-12-18T13:59:57;56.70;;;29.97;;
14681;SDS011;7429;52.498;13.480;2022-12-18T14:03:01;50.63;;;27.57;;
14681;SDS011;7429;52.498;13.480;2022-12-18T14:06:05;53.47;;;24.63;;
14681;SDS011;7429;52.498;13.480;2022-12-18T14:09:14;56.67;;;27.23;;
14681;SDS011;7429;52.498;13.480;2022-12-18T14:12:22;61.10;;;27.00;;
14681;SDS011;7429;52.498;13.480;2022-12-18T14:15:50;45.83;;;24.13;;
14681;SDS011;7429;52.498;13.480;2022-12-18T14:18:54;48.97;;;25.17;;
14681;SDS011;7429;52.498;13.480;2022-12-18T14:22:14;47.27;;;24.30;;
14681;SDS011;7429;52.498;13.480;2022-12-18T14:25:21;47.50;;;25.30;;
14681;SDS011;7429;52.498;13.480;2022-12-18T14:28:27;46.10;;;25.77;;
14681;SDS011;7429;52.498;13.480;2022-12-18T14:31:31;43.50;;;25.13;;
14681;SDS011;7429;52.498;13.480;2022-12-18T14:34:34;39.90;;;21.67;;
14681;SDS011;7429;52.498;13.480;2022-12-18T14:37:37;42.27;;;21.63;;
14681;SDS011;7429;52.498;13.480;2022-12-18T14:40:40;41.60;;;20.93;;
14681;SDS011;7429;52.498;13.480;2022-12-18T14:43:44;40.77;;;21.83;;
14681;SDS011;7429;52.498;13.480;2022-12-18T14:46:51;38.97;;;19.27;;
14681;SDS011;7429;52.498;13.480;2022-12-18T14:49:55;43.87;;;22.23;;
14681;SDS011;7429;52.498;13.480;2022-12-18T14:52:58;42.53;;;22.70;;
14681;SDS011;7429;52.498;13.480;2022-12-18T14:56:02;37.53;;;21.67;;
14681;SDS011;7429;52.498;13.480;2022-12-18T14:59:16;38.23;;;22.30;;
14681;SDS011;7429;52.498;13.480;2022-12-18T15:02:30;38.00;;;21.53;;
14681;SDS011;7429;52.498;13.480;2022-12-18T15:05:37;48.57;;;24.40;;
14681;SDS011;7429;52.498;13.480;2022-12-18T15:08:42;44.13;;;24.07;;
14681;SDS011;7429;52.498;13.480;2022-12-18T15:11:46;42.07;;;22.93;;
14681;SDS011;7429;52.498;13.480;2022-12-18T15:14:54;40.50;;;21.97;;
14681;SDS011;7429;52.498;13.480;2022-12-18T15:18:04;48.47;;;24.73;;
14681;SDS011;7429;52.498;13.480;2022-12-18T15:21:16;41.17;;;21.50;;
14681;SDS011;7429;52.498;13.480;2022-12-18T15:24:29;37.13;;;22.27;;
14681;SDS011;7429;52.498;13.480;2022-12-18T15:27:38;37.13;;;22.20;;
14681;SDS011;7429;52.498;13.480;2022-12-18T15:30:59;40.67;;;20.73;;
14681;SDS011;7429;52.498;13.480;2022-12-18T15:34:19;33.77;;;18.97;;
14681;SDS011;7429;52.498;13.480;2022-12-18T15:37:24;36.00;;;19.73;;
14681;SDS011;7429;52.498;13.480;2022-12-18T15:40:28;40.70;;;21.03;;
14681;SDS011;7429;52.498;13.480;2022-12-18T15:43:32;35.50;;;20.10;;
14681;SDS011;7429;52.498;13.480;2022-12-18T15:46:39;38.03;;;20.77;;
14681;SDS011;7429;52.498;13.480;2022-12-18T15:49:44;35.30;;;19.80;;
14681;SDS011;7429;52.498;13.480;2022-12-18T15:52:49;39.47;;;21.10;;
14681;SDS011;7429;52.498;13.480;2022-12-18T15:55:57;36.03;;;18.80;;
14681;SDS011;7429;52.498;13.480;2022-12-18T15:59:19;36.73;;;21.90;;
14681;SDS011;7429;52.498;13.480;2022-12-18T16:02:23;34.37;;;20.50;;
14681;SDS011;7429;52.498;13.480;2022-12-18T16:05:29;39.13;;;21.03;;
14681;SDS011;7429;52.498;13.480;2022-12-18T16:08:33;35.27;;;18.70;;
14681;SDS011;7429;52.498;13.480;2022-12-18T16:11:37;39.40;;;20.73;;
14681;SDS011;7429;52.498;13.480;2022-12-18T16:14:44;32.90;;;19.40;;
14681;SDS011;7429;52.498;13.480;2022-12-18T16:17:49;39.90;;;20.27;;
14681;SDS011;7429;52.498;13.480;2022-12-18T16:20:54;42.97;;;22.10;;
14681;SDS011;7429;52.498;13.480;2022-12-18T16:23:58;40.80;;;21.97;;
14681;SDS011;7429;52.498;13.480;2022-12-18T16:27:01;42.97;;;22.70;;
14681;SDS011;7429;52.498;13.480;2022-12-18T16:30:05;38.63;;;22.53;;
14681;SDS011;7429;52.498;13.480;2022-12-18T16:33:15;40.37;;;23.47;;
14681;SDS011;7429;52.498;13.480;2022-12-18T16:36:20;39.33;;;22.33;;
14681;SDS011;7429;52.498;13.480;2022-12-18T16:39:24;38.17;;;21.57;;
14681;SDS011;7429;52.498;13.480;2022-12-18T16:42:28;39.03;;;23.67;;
14681;SDS011;7429;52.498;13.480;2022-12-18T16:45:32;41.90;;;22.87;;
14681;SDS011;7429;52.498;13.480;2022-12-18T16:48:35;36.40;;;22.30;;
14681;SDS011;7429;52.498;13.480;2022-12-18T16:51:40;48.17;;;24.77;;
14681;SDS011;7429;52.498;13.480;2022-12-18T16:54:44;41.67;;;24.10;;
14681;SDS011;7429;52.498;13.480;2022-12-18T16:57:47;44.60;;;24.23;;
14681;SDS011;7429;52.498;13.480;2022-12-18T17:00:50;45.07;;;24.03;;
14681;SDS011;7429;52.498;13.480;2022-12-18T17:03:54;41.33;;;22.87;;
14681;SDS011;7429;52.498;13.480;2022-12-18T17:07:02;46.03;;;26.03;;
14681;SDS011;7429;52.498;13.480;2022-12-18T17:10:06;50.73;;;24.83;;
14681;SDS011;7429;52.498;13.480;2022-12-18T17:13:12;50.20;;;24.27;;
14681;SDS011;7429;52.498;13.480;2022-12-18T17:16:16;49.17;;;25.80;;
14681;SDS011;7429;52.498;13.480;2022-12-18T17:19:20;46.17;;;24.47;;
14681;SDS011;7429;52.498;13.480;2022-12-18T17:22:25;47.37;;;23.43;;
14681;SDS011;7429;52.498;13.480;2022-12-18T17:25:29;53.60;;;25.97;;
14681;SDS011;7429;52.498;13.480;2022-12-18T17:28:33;48.10;;;25.37;;
14681;SDS011;7429;52.498;13.480;2022-12-18T17:31:40;50.53;;;26.53;;
14681;SDS011;7429;52.498;13.480;2022-12-18T17:34:45;48.93;;;24.37;;
14681;SDS011;7429;52.498;13.480;2022-12-18T17:37:49;44.70;;;25.13;;
14681;SDS011;7429;52.498;13.480;2022-12-18T17:40:59;47.97;;;26.43;;
14681;SDS011;7429;52.498;13.480;2022-12-18T17:44:04;47.37;;;25.03;;
14681;SDS011;7429;52.498;13.480;2022-12-18T17:47:08;48.17;;;25.60;;
14681;SDS011;7429;52.498;13.480;2022-12-18T17:50:15;50.53;;;25.70;;
14681;SDS011;7429;52.498;13.480;2022-12-18T17:53:20;55.57;;;27.13;;
14681;SDS011;7429;52.498;13.480;2022-12-18T17:56:24;53.20;;;27.97;;
14681;SDS011;7429;52.498;13.480;2022-12-18T17:59:28;58.40;;;28.20;;
14681;SDS011;7429;52.498;13.480;2022-12-18T18:02:31;52.33;;;25.70;;
14681;SDS011;7429;52.498;13.480;2022-12-18T18:05:36;56.17;;;26.80;;
14681;SDS011;7429;52.498;13.480;2022-12-18T18:08:41;51.73;;;27.63;;
14681;SDS011;7429;52.498;13.480;2022-12-18T18:11:44;51.87;;;27.33;;
14681;SDS011;7429;52.498;13.480;2022-12-18T18:15:05;51.40;;;26.30;;
14681;SDS011;7429;52.498;13.480;2022-12-18T18:18:10;58.87;;;28.77;;
14681;SDS011;7429;52.498;13.480;2022-12-18T18:21:15;53.83;;;26.57;;
14681;SDS011;7429;52.498;13.480;2022-12-18T18:24:24;52.53;;;29.67;;
14681;SDS011;7429;52.498;13.480;2022-12-18T18:27:28;58.40;;;29.27;;